createdAt,value
2023-03-03T00:00:59.284Z,64.39
2023-03-03T00:03:27.581Z,64.81
2023-03-03T00:05:54.597Z,64.60
2023-03-03T00:08:23.198Z,64.62
2023-03-03T00:10:50.596Z,64.96
2023-03-03T00:13:20.935Z,64.71
2023-03-03T00:15:48.556Z,64.76
2023-03-03T00:18:33.821Z,64.14
2023-03-03T00:21:02.376Z,64.15
2023-03-03T00:23:32.281Z,64.07
2023-03-03T00:25:59.781Z,63.79
2023-03-03T00:28:44.713Z,63.65
2023-03-03T00:31:19.597Z,63.56
2023-03-03T00:33:54.815Z,63.48
2023-03-03T00:36:42.342Z,63.59
2023-03-03T00:39:33.858Z,64.22
2023-03-03T00:42:04.425Z,63.77
2023-03-03T00:44:46.313Z,64.19
2023-03-03T00:47:31.171Z,64.35
2023-03-03T00:50:07.847Z,63.92
2023-03-03T00:52:37.310Z,64.08
2023-03-03T00:55:05.888Z,64.00
2023-03-03T00:57:33.092Z,64.04
2023-03-03T01:00:00.908Z,63.55
2023-03-03T01:02:28.104Z,63.89
2023-03-03T01:04:58.362Z,63.77
2023-03-03T01:07:25.796Z,63.34
2023-03-03T01:09:52.804Z,63.77
2023-03-03T01:12:21.010Z,63.38
2023-03-03T01:14:49.451Z,63.85
2023-03-03T01:17:18.344Z,64.10
2023-03-03T01:19:46.535Z,64.35
2023-03-03T01:22:13.686Z,64.55
2023-03-03T01:24:40.789Z,65.47
2023-03-03T01:27:07.959Z,66.48
2023-03-03T01:29:35.063Z,66.36
2023-03-03T01:32:02.175Z,66.46
2023-03-03T01:34:29.283Z,66.19
2023-03-03T01:36:56.266Z,67.12
2023-03-03T01:39:23.232Z,67.34
2023-03-03T01:41:50.364Z,66.96
2023-03-03T01:44:17.393Z,66.17
2023-03-03T01:47:32.046Z,66.36
2023-03-03T01:50:04.465Z,66.11
2023-03-03T01:52:39.090Z,66.33
2023-03-03T01:55:29.335Z,66.43
2023-03-03T01:58:05.021Z,66.59
2023-03-03T02:00:34.313Z,66.29
2023-03-03T02:03:02.042Z,66.52
2023-03-03T02:05:29.875Z,65.97
2023-03-03T02:07:57.021Z,66.13
2023-03-03T02:10:24.121Z,65.66
2023-03-03T02:12:59.452Z,65.40
2023-03-03T02:15:27.654Z,65.33
2023-03-03T02:17:58.072Z,65.77
2023-03-03T02:20:52.298Z,65.35
2023-03-03T02:23:25.534Z,65.48
2023-03-03T02:25:59.324Z,65.62
2023-03-03T02:28:33.837Z,65.21
2023-03-03T02:31:10.996Z,65.28
2023-03-03T02:33:40.777Z,65.06
2023-03-03T02:36:13.417Z,66.68
2023-03-03T02:38:45.036Z,68.50
2023-03-03T02:41:33.500Z,68.58
2023-03-03T02:44:07.824Z,68.99
2023-03-03T02:46:40.270Z,68.54
2023-03-03T02:49:09.726Z,67.99
2023-03-03T02:51:37.495Z,68.36
2023-03-03T02:54:05.670Z,68.10
2023-03-03T02:56:33.732Z,67.71
2023-03-03T02:59:01.192Z,68.01
2023-03-03T03:01:32.266Z,67.37
2023-03-03T03:03:59.668Z,66.26
2023-03-03T03:06:26.761Z,66.71
2023-03-03T03:08:54.138Z,66.27
2023-03-03T03:11:21.624Z,65.90
2023-03-03T03:13:48.968Z,66.59
2023-03-03T03:16:16.531Z,66.38
2023-03-03T03:18:43.500Z,66.29
2023-03-03T03:21:13.512Z,67.03
2023-03-03T03:23:42.509Z,67.19
2023-03-03T03:26:11.950Z,67.67
2023-03-03T03:28:39.716Z,67.22
2023-03-03T03:31:09.096Z,67.37
2023-03-03T03:33:36.596Z,67.71
2023-03-03T03:36:06.373Z,67.56
2023-03-03T03:38:36.770Z,67.36
2023-03-03T03:41:07.423Z,67.90
2023-03-03T03:43:35.470Z,67.45
2023-03-03T03:46:03.627Z,67.52
2023-03-03T03:48:31.589Z,67.57
2023-03-03T03:50:59.444Z,67.96
2023-03-03T03:53:27.826Z,67.86
2023-03-03T03:55:55.137Z,67.86
2023-03-03T03:58:22.326Z,67.77
2023-03-03T04:00:56.297Z,66.88
2023-03-03T04:03:23.394Z,66.49
2023-03-03T04:05:54.289Z,66.41
2023-03-03T04:08:21.854Z,65.73
2023-03-03T04:10:49.051Z,65.69
2023-03-03T04:13:16.783Z,65.44
2023-03-03T04:15:44.986Z,66.04
2023-03-03T04:18:12.447Z,66.04
2023-03-03T04:20:41.003Z,66.75
2023-03-03T04:23:08.045Z,67.67
2023-03-03T04:25:35.102Z,67.23
2023-03-03T04:28:05.659Z,66.75
2023-03-03T04:30:33.294Z,67.03
2023-03-03T04:33:01.135Z,68.53
2023-03-03T04:35:28.692Z,66.80
2023-03-03T04:37:56.700Z,66.86
2023-03-03T04:40:24.707Z,68.05
2023-03-03T04:42:52.408Z,68.13
2023-03-03T04:45:19.542Z,67.74
2023-03-03T04:47:47.068Z,67.84
2023-03-03T04:50:14.687Z,67.40
2023-03-03T04:52:41.797Z,67.65
2023-03-03T04:55:10.552Z,66.87
2023-03-03T04:57:39.329Z,67.25
2023-03-03T05:00:07.231Z,66.81
2023-03-03T05:02:34.232Z,66.21
2023-03-03T05:05:01.611Z,66.87
2023-03-03T05:07:30.305Z,67.10
2023-03-03T05:09:57.349Z,66.89
2023-03-03T05:12:24.399Z,67.00
2023-03-03T05:14:51.712Z,67.20
2023-03-03T05:17:19.147Z,66.29
2023-03-03T05:19:46.155Z,66.09
2023-03-03T05:22:13.171Z,66.68
2023-03-03T05:24:40.299Z,66.86
2023-03-03T05:27:07.236Z,66.32
2023-03-03T05:29:34.326Z,66.30
2023-03-03T05:32:01.624Z,65.73
2023-03-03T05:34:28.730Z,64.91
2023-03-03T05:36:55.821Z,65.54
2023-03-03T05:39:23.512Z,65.68
2023-03-03T05:41:50.703Z,65.51
2023-03-03T05:44:20.249Z,65.38
2023-03-03T05:46:47.733Z,66.03
2023-03-03T05:49:14.758Z,65.44
2023-03-03T05:51:41.724Z,65.79
2023-03-03T05:54:08.862Z,65.32
2023-03-03T05:56:36.227Z,64.60
2023-03-03T05:59:03.647Z,64.27
2023-03-03T06:01:30.726Z,64.34
2023-03-03T06:03:57.753Z,64.74
2023-03-03T06:06:24.834Z,64.33
2023-03-03T06:08:55.497Z,63.37
2023-03-03T06:11:25.121Z,63.58
2023-03-03T06:13:52.465Z,62.56
2023-03-03T06:16:19.770Z,62.85
2023-03-03T06:18:47.344Z,62.35
2023-03-03T06:21:14.392Z,63.22
2023-03-03T06:23:41.799Z,62.25
2023-03-03T06:26:08.859Z,62.49
2023-03-03T06:28:35.828Z,62.10
2023-03-03T06:31:03.003Z,61.88
2023-03-03T06:33:30.117Z,61.83
2023-03-03T06:35:57.386Z,61.10
2023-03-03T06:38:24.492Z,60.54
2023-03-03T06:40:51.714Z,60.97
2023-03-03T06:43:18.687Z,60.38
2023-03-03T06:45:46.498Z,60.68
2023-03-03T06:48:13.490Z,59.44
2023-03-03T06:50:40.581Z,58.65
2023-03-03T06:53:17.984Z,58.87
2023-03-03T06:55:45.711Z,58.72
2023-03-03T06:58:18.377Z,58.71
2023-03-03T07:00:58.046Z,58.49
2023-03-03T07:03:44.034Z,58.76
2023-03-03T07:06:22.654Z,58.26
2023-03-03T07:08:51.355Z,59.13
2023-03-03T07:11:22.272Z,59.29
2023-03-03T07:13:54.389Z,59.58
2023-03-03T07:16:27.261Z,59.44
2023-03-03T07:18:56.978Z,59.11
2023-03-03T07:21:31.844Z,59.22
2023-03-03T07:24:01.500Z,59.08
2023-03-03T07:26:34.866Z,58.70
2023-03-03T07:29:18.136Z,58.72
2023-03-03T07:31:50.293Z,58.21
2023-03-03T07:34:24.579Z,58.00
2023-03-03T07:36:56.015Z,57.99
2023-03-03T07:39:35.741Z,58.25
2023-03-03T07:42:15.011Z,57.19
2023-03-03T07:44:42.000Z,57.26
2023-03-03T07:47:24.186Z,57.87
2023-03-03T07:49:53.869Z,57.67
2023-03-03T07:52:40.340Z,57.87
2023-03-03T07:55:29.161Z,57.78
2023-03-03T07:57:59.354Z,57.93
2023-03-03T08:00:26.396Z,57.48
2023-03-03T08:03:01.148Z,57.18
2023-03-03T08:05:40.326Z,56.35
2023-03-03T08:08:10.898Z,56.42
2023-03-03T08:10:55.786Z,56.10
2023-03-03T08:13:40.318Z,56.47
2023-03-03T08:16:11.198Z,56.12
2023-03-03T08:18:43.794Z,55.47
2023-03-03T08:21:16.758Z,54.48
2023-03-03T08:23:44.948Z,54.07
2023-03-03T08:26:17.121Z,54.69
2023-03-03T08:28:44.403Z,54.10
2023-03-03T08:31:20.263Z,53.41
2023-03-03T08:33:52.186Z,54.38
2023-03-03T08:36:19.571Z,53.60
2023-03-03T08:38:46.707Z,53.68
2023-03-03T08:41:14.313Z,54.68
2023-03-03T08:43:42.021Z,55.35
2023-03-03T08:46:10.630Z,55.09
2023-03-03T08:48:38.799Z,54.71
2023-03-03T08:51:06.859Z,55.21
2023-03-03T08:53:36.768Z,54.73
2023-03-03T08:56:05.945Z,55.18
2023-03-03T08:58:35.457Z,54.87
2023-03-03T09:01:04.552Z,54.81
2023-03-03T09:03:32.234Z,55.60
2023-03-03T09:05:59.692Z,55.22
2023-03-03T09:08:27.310Z,54.74
2023-03-03T09:10:54.423Z,54.36
2023-03-03T09:13:21.898Z,54.73
2023-03-03T09:15:50.664Z,54.63
2023-03-03T09:18:38.591Z,53.84
2023-03-03T09:21:23.244Z,53.83
2023-03-03T09:23:58.794Z,53.02
2023-03-03T09:26:48.798Z,53.50
2023-03-03T09:29:15.905Z,52.75
2023-03-03T09:31:53.706Z,52.17
2023-03-03T09:34:31.067Z,52.79
2023-03-03T09:37:00.270Z,52.65
2023-03-03T09:39:30.945Z,53.07
2023-03-03T09:42:21.059Z,52.26
2023-03-03T09:45:26.659Z,52.18
2023-03-03T09:48:22.368Z,52.70
2023-03-03T09:51:11.055Z,52.96
2023-03-03T09:54:04.588Z,52.31
2023-03-03T09:56:40.442Z,52.45
2023-03-03T09:59:10.654Z,53.13
2023-03-03T10:01:50.204Z,53.48
2023-03-03T10:05:10.918Z,53.22
2023-03-03T10:08:00.515Z,53.18
2023-03-03T10:11:03.508Z,53.01
2023-03-03T10:13:36.452Z,52.22
2023-03-03T10:16:18.640Z,52.25
2023-03-03T10:19:15.432Z,53.10
2023-03-03T10:21:48.576Z,52.01
2023-03-03T10:24:15.825Z,53.36
2023-03-03T10:26:45.747Z,52.42
2023-03-03T10:29:30.997Z,51.56
2023-03-03T10:32:29.254Z,51.73
2023-03-03T10:35:14.294Z,50.24
2023-03-03T10:38:12.132Z,47.67
2023-03-03T10:41:00.487Z,43.44
2023-03-03T10:43:52.348Z,43.11
2023-03-03T10:46:28.569Z,43.49
2023-03-03T10:49:02.232Z,43.50
2023-03-03T10:51:47.482Z,44.37
2023-03-03T10:55:10.203Z,45.53
2023-03-03T10:58:09.319Z,45.94
2023-03-03T11:00:52.010Z,46.75
2023-03-03T11:03:37.475Z,47.47
2023-03-03T11:06:17.364Z,48.11
2023-03-03T11:09:05.405Z,47.89
2023-03-03T11:11:46.533Z,48.94
2023-03-03T11:14:24.409Z,49.32
2023-03-03T11:17:11.825Z,49.31
2023-03-03T11:20:06.903Z,49.32
2023-03-03T11:22:44.829Z,49.29
2023-03-03T11:25:33.457Z,49.04
2023-03-03T11:28:15.632Z,48.55
2023-03-03T11:31:13.265Z,49.02
2023-03-03T11:33:58.941Z,49.10
2023-03-03T11:36:37.829Z,49.60
2023-03-03T11:39:09.820Z,49.95
2023-03-03T11:41:48.197Z,50.19
2023-03-03T11:44:39.982Z,50.70
2023-03-03T11:47:19.156Z,51.25
2023-03-03T11:50:13.753Z,50.51
2023-03-03T11:52:53.450Z,51.62
2023-03-03T11:55:27.536Z,50.59
2023-03-03T11:58:25.110Z,51.39
2023-03-03T12:01:26.556Z,51.62
2023-03-03T12:04:22.741Z,50.56
2023-03-03T12:07:19.345Z,49.69
2023-03-03T12:10:11.193Z,50.89
2023-03-03T12:12:45.219Z,50.92
2023-03-03T12:15:34.216Z,50.86
2023-03-03T12:18:16.165Z,51.46
2023-03-03T12:20:49.031Z,50.90
2023-03-03T12:23:27.955Z,51.25
2023-03-03T12:26:19.997Z,51.81
2023-03-03T12:28:59.406Z,52.25
2023-03-03T12:32:02.518Z,52.32
2023-03-03T12:34:47.794Z,52.09
2023-03-03T12:37:35.946Z,52.11
2023-03-03T12:40:10.222Z,52.42
2023-03-03T12:42:37.149Z,52.54
2023-03-03T12:45:23.229Z,51.67
2023-03-03T12:47:55.375Z,51.96
2023-03-03T12:50:22.289Z,52.33
2023-03-03T12:53:09.949Z,52.05
2023-03-03T12:55:52.207Z,51.94
2023-03-03T12:58:34.319Z,52.49
2023-03-03T13:01:28.480Z,52.24
2023-03-03T13:04:24.331Z,52.18
2023-03-03T13:06:54.905Z,52.71
2023-03-03T13:09:34.004Z,52.82
2023-03-03T13:12:05.876Z,52.53
2023-03-03T13:14:47.672Z,52.15
2023-03-03T13:17:18.401Z,52.16
2023-03-03T13:20:12.074Z,52.05
2023-03-03T13:22:44.380Z,51.77
2023-03-03T13:25:36.579Z,52.24
2023-03-03T13:28:18.580Z,51.66
2023-03-03T13:30:51.229Z,51.22
2023-03-03T13:33:27.820Z,51.40
2023-03-03T13:36:00.183Z,51.40
2023-03-03T13:38:31.661Z,51.62
2023-03-03T13:41:15.822Z,50.37
2023-03-03T13:43:54.965Z,50.65
2023-03-03T13:46:28.669Z,50.79
2023-03-03T13:49:04.521Z,50.04
2023-03-03T13:51:49.091Z,49.82
2023-03-03T13:54:28.645Z,50.24
2023-03-03T13:57:04.648Z,50.56
2023-03-03T13:59:57.918Z,50.66
2023-03-03T14:02:42.936Z,50.29
2023-03-03T14:05:15.960Z,50.84
2023-03-03T14:07:52.073Z,50.65
2023-03-03T14:10:22.021Z,50.41
2023-03-03T14:13:15.472Z,50.38
2023-03-03T14:15:58.307Z,50.87
2023-03-03T14:18:39.484Z,50.95
2023-03-03T14:21:19.438Z,50.08
2023-03-03T14:24:05.066Z,50.02
2023-03-03T14:26:45.206Z,50.26
2023-03-03T14:29:30.125Z,50.05
2023-03-03T14:32:02.911Z,51.10
2023-03-03T14:34:38.947Z,50.56
2023-03-03T14:37:26.266Z,50.29
2023-03-03T14:40:17.997Z,50.32
2023-03-03T14:42:49.380Z,50.58
2023-03-03T14:45:29.426Z,49.93
2023-03-03T14:47:58.061Z,50.58
2023-03-03T14:50:38.709Z,50.92
2023-03-03T14:53:14.271Z,50.64
2023-03-03T14:55:44.304Z,50.93
2023-03-03T14:58:28.679Z,51.68
2023-03-03T15:01:33.221Z,51.47
2023-03-03T15:04:25.382Z,51.62
2023-03-03T15:06:54.504Z,51.45
2023-03-03T15:09:36.741Z,51.10
2023-03-03T15:12:21.682Z,51.78
2023-03-03T15:14:53.962Z,51.54
2023-03-03T15:17:23.665Z,51.48
2023-03-03T15:20:09.042Z,51.76
2023-03-03T15:23:07.677Z,51.73
2023-03-03T15:25:55.012Z,51.95
2023-03-03T15:28:46.459Z,51.76
2023-03-03T15:31:30.376Z,51.31
2023-03-03T15:34:15.711Z,52.28
2023-03-03T15:37:01.383Z,51.96
2023-03-03T15:39:43.550Z,51.70
2023-03-03T15:42:27.296Z,51.95
2023-03-03T15:45:03.435Z,51.73
2023-03-03T15:47:49.396Z,51.65
2023-03-03T15:50:40.538Z,52.00
2023-03-03T15:53:23.758Z,52.34
2023-03-03T15:56:01.342Z,52.32
2023-03-03T15:58:43.521Z,51.87
2023-03-03T16:01:38.382Z,51.85
2023-03-03T16:04:11.203Z,51.30
2023-03-03T16:06:56.346Z,51.53
2023-03-03T16:09:26.255Z,51.64
2023-03-03T16:12:15.768Z,52.08
2023-03-03T16:14:59.454Z,51.68
2023-03-03T16:17:26.482Z,51.83
2023-03-03T16:20:23.220Z,51.85
2023-03-03T16:22:59.069Z,52.08
2023-03-03T16:25:53.144Z,51.85
2023-03-03T16:28:33.106Z,52.16
2023-03-03T16:31:04.926Z,52.25
2023-03-03T16:33:44.079Z,52.04
2023-03-03T16:36:26.051Z,51.40
2023-03-03T16:39:24.061Z,51.76
2023-03-03T16:42:06.108Z,51.45
2023-03-03T16:44:57.497Z,51.34
2023-03-03T16:47:43.050Z,51.71
2023-03-03T16:50:35.281Z,51.42
2023-03-03T16:53:27.660Z,51.44
2023-03-03T16:56:13.593Z,51.80
2023-03-03T16:58:40.679Z,51.95
2023-03-03T17:01:36.505Z,51.91
2023-03-03T17:04:33.162Z,52.44
2023-03-03T17:07:23.658Z,51.72
2023-03-03T17:09:54.962Z,51.68
2023-03-03T17:12:49.895Z,51.99
2023-03-03T17:15:38.663Z,52.31
2023-03-03T17:18:17.987Z,51.94
2023-03-03T17:21:02.079Z,52.60
2023-03-03T17:24:00.144Z,52.55
2023-03-03T17:26:30.153Z,53.05
2023-03-03T17:29:09.282Z,52.81
2023-03-03T17:31:54.548Z,52.93
2023-03-03T17:34:30.537Z,53.21
2023-03-03T17:37:06.522Z,53.15
2023-03-03T17:39:58.830Z,52.81
2023-03-03T17:42:53.903Z,53.14
2023-03-03T17:45:24.068Z,52.82
2023-03-03T17:48:07.706Z,52.82
2023-03-03T17:50:53.558Z,53.62
2023-03-03T17:53:23.341Z,53.24
2023-03-03T17:55:50.412Z,53.23
2023-03-03T17:59:14.674Z,53.61
2023-03-03T18:02:18.995Z,53.73
2023-03-03T18:04:46.113Z,53.83
2023-03-03T18:08:23.652Z,53.76
2023-03-03T18:11:32.146Z,54.24
2023-03-03T18:14:36.322Z,53.97
2023-03-03T18:17:09.455Z,54.12
2023-03-03T18:20:02.305Z,54.23
2023-03-03T18:22:34.760Z,53.92
2023-03-03T18:25:08.642Z,54.46
2023-03-03T18:28:01.820Z,53.56
2023-03-03T18:30:57.784Z,53.25
2023-03-03T18:33:36.105Z,53.17
2023-03-03T18:36:36.798Z,52.10
2023-03-03T18:39:06.132Z,51.65
2023-03-03T18:41:54.603Z,51.96
2023-03-03T18:44:29.424Z,51.71
2023-03-03T18:46:58.922Z,51.81
2023-03-03T18:50:10.903Z,51.13
2023-03-03T18:52:38.353Z,51.49
2023-03-03T18:55:23.968Z,52.01
2023-03-03T18:58:26.539Z,52.06
2023-03-03T19:00:59.885Z,52.53
2023-03-03T19:03:33.716Z,52.22
2023-03-03T19:06:02.714Z,52.42
2023-03-03T19:08:57.011Z,52.17
2023-03-03T19:11:51.235Z,53.04
2023-03-03T19:14:27.775Z,53.68
2023-03-03T19:16:56.733Z,53.30
2023-03-03T19:19:29.587Z,53.20
2023-03-03T19:22:24.768Z,53.90
2023-03-03T19:25:13.284Z,54.45
2023-03-03T19:27:55.469Z,54.46
2023-03-03T19:30:28.484Z,54.40
2023-03-03T19:33:26.500Z,54.12
2023-03-03T19:35:59.504Z,54.57
2023-03-03T19:38:42.806Z,55.13
2023-03-03T19:41:47.593Z,55.13
2023-03-03T19:45:02.188Z,55.43
2023-03-03T19:47:44.992Z,55.55
2023-03-03T19:50:35.423Z,55.38
2023-03-03T19:53:28.464Z,55.76
2023-03-03T19:56:21.994Z,56.37
2023-03-03T19:59:03.924Z,56.22
2023-03-03T20:01:47.343Z,56.17
2023-03-03T20:04:52.464Z,57.15
2023-03-03T20:07:56.016Z,57.26
2023-03-03T20:10:38.687Z,57.21
2023-03-03T20:13:40.441Z,58.08
2023-03-03T20:16:19.401Z,58.43
2023-03-03T20:19:17.472Z,58.44
2023-03-03T20:22:03.082Z,58.29
2023-03-03T20:24:48.491Z,58.75
2023-03-03T20:27:46.045Z,59.50
2023-03-03T20:30:13.057Z,59.36
2023-03-03T20:33:15.363Z,59.25
2023-03-03T20:35:48.497Z,58.92
2023-03-03T20:38:27.515Z,59.18
2023-03-03T20:41:05.658Z,59.04
2023-03-03T20:43:35.357Z,59.55
2023-03-03T20:46:23.142Z,59.03
2023-03-03T20:49:14.928Z,58.98
2023-03-03T20:52:00.528Z,58.48
2023-03-03T20:55:05.173Z,58.84
2023-03-03T20:57:50.276Z,58.27
2023-03-03T21:00:17.208Z,58.21
2023-03-03T21:02:50.858Z,57.88
2023-03-03T21:05:23.242Z,57.62
2023-03-03T21:08:03.595Z,57.84
2023-03-03T21:10:35.785Z,57.83
2023-03-03T21:13:40.989Z,57.40
2023-03-03T21:16:23.074Z,57.45
2023-03-03T21:19:05.399Z,57.74
2023-03-03T21:21:36.199Z,57.55
2023-03-03T21:24:03.679Z,57.25
2023-03-03T21:26:55.478Z,57.40
2023-03-03T21:29:30.913Z,57.24
2023-03-03T21:32:03.727Z,57.84
2023-03-03T21:34:33.447Z,57.05
2023-03-03T21:37:03.151Z,56.93
2023-03-03T21:39:44.143Z,57.86
2023-03-03T21:42:12.374Z,57.23
2023-03-03T21:44:41.133Z,57.68
2023-03-03T21:47:11.056Z,57.64
2023-03-03T21:49:49.196Z,57.87
2023-03-03T21:52:18.197Z,57.75
2023-03-03T21:54:47.084Z,58.05
2023-03-03T21:57:14.358Z,57.55
2023-03-03T21:59:41.905Z,57.85
2023-03-03T22:02:09.246Z,58.15
2023-03-03T22:04:38.536Z,57.80
2023-03-03T22:07:05.825Z,58.20
2023-03-03T22:09:32.877Z,57.62
2023-03-03T22:11:59.882Z,57.65
2023-03-03T22:14:26.899Z,58.09
2023-03-03T22:16:53.968Z,58.75
2023-03-03T22:19:21.193Z,58.26
2023-03-03T22:21:49.762Z,58.37
2023-03-03T22:24:17.131Z,58.49
2023-03-03T22:26:44.237Z,58.34
2023-03-03T22:29:11.361Z,58.53
2023-03-03T22:31:38.444Z,58.46
2023-03-03T22:34:05.592Z,58.06
2023-03-03T22:36:32.858Z,57.67
2023-03-03T22:39:01.019Z,58.06
2023-03-03T22:41:28.110Z,57.67
2023-03-03T22:43:55.145Z,57.94
2023-03-03T22:46:22.212Z,57.85
2023-03-03T22:48:49.258Z,58.42
2023-03-03T22:51:16.369Z,58.30
2023-03-03T22:53:43.387Z,58.24
2023-03-03T22:56:10.381Z,58.26
2023-03-03T22:58:37.389Z,58.27
2023-03-03T23:01:05.255Z,58.36
2023-03-03T23:03:32.933Z,58.75
2023-03-03T23:05:59.998Z,59.23
2023-03-03T23:08:27.707Z,58.90
2023-03-03T23:10:54.712Z,58.82
2023-03-03T23:13:21.867Z,59.08
2023-03-03T23:15:48.974Z,59.07
2023-03-03T23:18:15.913Z,59.05
2023-03-03T23:20:46.072Z,58.99
2023-03-03T23:23:13.251Z,58.85
2023-03-03T23:25:40.327Z,59.25
2023-03-03T23:28:07.716Z,59.60
2023-03-03T23:30:34.814Z,59.25
2023-03-03T23:33:01.766Z,59.47
2023-03-03T23:35:28.738Z,60.06
2023-03-03T23:37:55.712Z,60.24
2023-03-03T23:40:22.747Z,60.37
2023-03-03T23:42:49.992Z,60.22
2023-03-03T23:45:17.441Z,60.34
2023-03-03T23:47:44.646Z,60.70
2023-03-03T23:50:12.703Z,60.79
2023-03-03T23:52:39.886Z,60.70
2023-03-03T23:55:08.009Z,60.79
2023-03-03T23:57:35.062Z,60.40
